sensor_id;sensor_type;location;lat;lon;timestamp;pressure;altitude;pressure_sealevel;temperature;humidity
54248;BME280;40161;39.768;2.722;2022-08-11T00:00:08;101124.28;;;25.99;58.30
54248;BME280;40161;39.768;2.722;2022-08-11T00:02:41;101107.28;;;26.02;56.94
54248;BME280;40161;39.768;2.722;2022-08-11T00:05:10;101135.78;;;26.32;56.37
54248;BME280;40161;39.768;2.722;2022-08-11T00:07:53;101146.25;;;26.22;57.88
54248;BME280;40161;39.768;2.722;2022-08-11T00:10:22;101143.28;;;25.86;59.50
54248;BME280;40161;39.768;2.722;2022-08-11T00:12:57;101153.22;;;25.77;60.54
54248;BME280;40161;39.768;2.722;2022-08-11T00:15:25;101110.47;;;25.83;59.65
54248;BME280;40161;39.768;2.722;2022-08-11T00:17:58;101142.78;;;26.18;59.03
54248;BME280;40161;39.768;2.722;2022-08-11T00:20:33;101139.47;;;26.11;57.62
54248;BME280;40161;39.768;2.722;2022-08-11T00:23:08;101148.09;;;26.16;57.39
54248;BME280;40161;39.768;2.722;2022-08-11T00:25:49;101150.72;;;26.11;57.37
54248;BME280;40161;39.768;2.722;2022-08-11T00:30:50;101148.66;;;25.71;57.92
54248;BME280;40161;39.768;2.722;2022-08-11T00:33:16;101164.56;;;25.43;57.67
54248;BME280;40161;39.768;2.722;2022-08-11T00:35:43;101163.78;;;24.98;59.64
54248;BME280;40161;39.768;2.722;2022-08-11T00:38:10;101159.25;;;25.01;59.35
54248;BME280;40161;39.768;2.722;2022-08-11T00:40:55;101165.97;;;25.38;58.33
54248;BME280;40161;39.768;2.722;2022-08-11T02:01:51;101172.72;;;25.06;55.63
54248;BME280;40161;39.768;2.722;2022-08-11T02:04:39;101175.75;;;25.12;55.33
54248;BME280;40161;39.768;2.722;2022-08-11T02:15:37;101132.94;;;25.07;55.66
54248;BME280;40161;39.768;2.722;2022-08-11T02:21:36;101165.97;;;25.16;56.46
54248;BME280;40161;39.768;2.722;2022-08-11T02:27:54;101138.91;;;25.09;55.67
54248;BME280;40161;39.768;2.722;2022-08-11T02:30:24;101162.31;;;25.28;56.11
54248;BME280;40161;39.768;2.722;2022-08-11T02:33:19;101162.59;;;25.08;56.92
54248;BME280;40161;39.768;2.722;2022-08-11T03:02:23;101147.38;;;24.97;58.03
54248;BME280;40161;39.768;2.722;2022-08-11T03:10:12;101111.69;;;24.62;57.85
54248;BME280;40161;39.768;2.722;2022-08-11T03:25:45;101138.84;;;24.66;58.44
54248;BME280;40161;39.768;2.722;2022-08-11T03:34:40;101139.72;;;24.97;57.31
54248;BME280;40161;39.768;2.722;2022-08-11T03:43:36;101168.06;;;24.90;58.51
54248;BME280;40161;39.768;2.722;2022-08-11T04:08:07;101176.81;;;24.32;59.40
54248;BME280;40161;39.768;2.722;2022-08-11T04:20:48;101161.66;;;24.29;58.33
54248;BME280;40161;39.768;2.722;2022-08-11T04:26:06;101173.78;;;24.39;58.65
54248;BME280;40161;39.768;2.722;2022-08-11T04:31:35;101174.78;;;24.93;57.60
54248;BME280;40161;39.768;2.722;2022-08-11T04:58:48;101153.84;;;24.11;56.06
54248;BME280;40161;39.768;2.722;2022-08-11T05:08:00;101184.69;;;23.86;56.87
54248;BME280;40161;39.768;2.722;2022-08-11T05:10:22;101180.59;;;23.61;57.76
54248;BME280;40161;39.768;2.722;2022-08-11T05:12:55;101127.97;;;23.82;57.46
54248;BME280;40161;39.768;2.722;2022-08-11T05:15:41;101159.78;;;24.26;56.91
54248;BME280;40161;39.768;2.722;2022-08-11T05:18:30;101135.88;;;24.22;55.74
54248;BME280;40161;39.768;2.722;2022-08-11T05:21:20;101169.75;;;24.53;54.94
54248;BME280;40161;39.768;2.722;2022-08-11T05:24:15;101182.41;;;24.32;55.29
54248;BME280;40161;39.768;2.722;2022-08-11T05:27:01;101175.25;;;24.18;56.30
54248;BME280;40161;39.768;2.722;2022-08-11T05:30:01;101175.59;;;24.20;56.33
54248;BME280;40161;39.768;2.722;2022-08-11T05:32:57;101177.63;;;24.07;56.84
54248;BME280;40161;39.768;2.722;2022-08-11T05:35:54;101187.94;;;24.23;55.80
54248;BME280;40161;39.768;2.722;2022-08-11T05:38:23;101197.81;;;24.40;55.27
54248;BME280;40161;39.768;2.722;2022-08-11T05:41:12;101187.38;;;24.41;54.36
54248;BME280;40161;39.768;2.722;2022-08-11T05:43:58;101185.34;;;24.28;54.13
54248;BME280;40161;39.768;2.722;2022-08-11T05:46:43;101159.34;;;23.89;55.44
54248;BME280;40161;39.768;2.722;2022-08-11T05:49:31;101182.00;;;23.95;56.20
54248;BME280;40161;39.768;2.722;2022-08-11T05:52:17;101198.38;;;24.09;55.49
54248;BME280;40161;39.768;2.722;2022-08-11T05:55:04;101149.34;;;24.01;56.51
54248;BME280;40161;39.768;2.722;2022-08-11T05:57:54;101157.09;;;24.23;55.81
54248;BME280;40161;39.768;2.722;2022-08-11T06:00:21;101179.66;;;24.19;55.91
54248;BME280;40161;39.768;2.722;2022-08-11T06:02:59;101194.22;;;24.14;54.78
54248;BME280;40161;39.768;2.722;2022-08-11T06:05:36;101163.94;;;24.09;55.49
54248;BME280;40161;39.768;2.722;2022-08-11T06:08:05;101170.78;;;23.95;55.86
54248;BME280;40161;39.768;2.722;2022-08-11T06:10:35;101177.84;;;23.87;57.00
54248;BME280;40161;39.768;2.722;2022-08-11T06:13:02;101187.59;;;23.95;55.94
54248;BME280;40161;39.768;2.722;2022-08-11T06:15:32;101187.38;;;24.41;56.03
54248;BME280;40161;39.768;2.722;2022-08-11T06:21:48;101195.72;;;24.79;53.69
54248;BME280;40161;39.768;2.722;2022-08-11T06:24:16;101189.00;;;24.63;54.83
54248;BME280;40161;39.768;2.722;2022-08-11T06:26:52;101194.66;;;24.51;53.96
54248;BME280;40161;39.768;2.722;2022-08-11T06:29:19;101160.44;;;24.17;54.32
54248;BME280;40161;39.768;2.722;2022-08-11T06:31:55;101187.13;;;24.35;53.92
54248;BME280;40161;39.768;2.722;2022-08-11T06:37:44;101184.88;;;24.55;53.71
54248;BME280;40161;39.768;2.722;2022-08-11T06:43:14;101197.53;;;24.73;52.03
54248;BME280;40161;39.768;2.722;2022-08-11T06:48:20;101190.41;;;24.81;53.01
54248;BME280;40161;39.768;2.722;2022-08-11T06:51:01;101177.31;;;24.78;52.57
54248;BME280;40161;39.768;2.722;2022-08-11T06:53:48;101189.88;;;24.86;50.54
54248;BME280;40161;39.768;2.722;2022-08-11T06:56:21;101195.44;;;24.99;50.67
54248;BME280;40161;39.768;2.722;2022-08-11T06:59:06;101202.84;;;25.05;51.13
54248;BME280;40161;39.768;2.722;2022-08-11T07:02:06;101217.44;;;25.13;50.14
54248;BME280;40161;39.768;2.722;2022-08-11T07:04:48;101200.09;;;25.15;49.54
54248;BME280;40161;39.768;2.722;2022-08-11T07:10:45;101212.72;;;25.32;49.84
54248;BME280;40161;39.768;2.722;2022-08-11T07:13:32;101208.75;;;25.42;50.30
54248;BME280;40161;39.768;2.722;2022-08-11T07:16:25;101205.03;;;25.45;49.68
54248;BME280;40161;39.768;2.722;2022-08-11T07:18:57;101211.34;;;25.58;48.93
54248;BME280;40161;39.768;2.722;2022-08-11T07:21:45;101191.03;;;25.54;47.72
54248;BME280;40161;39.768;2.722;2022-08-11T07:24:53;101206.09;;;25.70;46.34
54248;BME280;40161;39.768;2.722;2022-08-11T07:27:43;101198.53;;;25.79;45.75
54248;BME280;40161;39.768;2.722;2022-08-11T07:30:29;101163.13;;;25.60;45.14
54248;BME280;40161;39.768;2.722;2022-08-11T07:32:58;101192.50;;;25.90;44.68
54248;BME280;40161;39.768;2.722;2022-08-11T07:35:51;101198.97;;;26.00;42.06
54248;BME280;40161;39.768;2.722;2022-08-11T07:38:25;101193.97;;;26.04;42.15
54248;BME280;40161;39.768;2.722;2022-08-11T07:41:09;101194.47;;;26.12;42.65
54248;BME280;40161;39.768;2.722;2022-08-11T07:43:36;101196.69;;;26.17;42.32
54248;BME280;40161;39.768;2.722;2022-08-11T07:46:03;101189.22;;;26.23;42.40
54248;BME280;40161;39.768;2.722;2022-08-11T07:48:47;101208.63;;;26.39;41.52
54248;BME280;40161;39.768;2.722;2022-08-11T07:51:32;101171.84;;;26.24;40.55
54248;BME280;40161;39.768;2.722;2022-08-11T07:54:17;101211.03;;;26.50;40.13
54248;BME280;40161;39.768;2.722;2022-08-11T07:56:44;101163.44;;;26.34;38.71
54248;BME280;40161;39.768;2.722;2022-08-11T07:59:10;101208.75;;;26.76;38.63
54248;BME280;40161;39.768;2.722;2022-08-11T08:01:55;101213.13;;;26.86;38.66
54248;BME280;40161;39.768;2.722;2022-08-11T08:04:40;101210.78;;;26.94;38.28
54248;BME280;40161;39.768;2.722;2022-08-11T08:07:25;101204.84;;;27.01;38.95
54248;BME280;40161;39.768;2.722;2022-08-11T08:10:09;101211.91;;;27.15;42.58
54248;BME280;40161;39.768;2.722;2022-08-11T08:12:55;101205.19;;;27.21;42.10
54248;BME280;40161;39.768;2.722;2022-08-11T08:15:40;101212.22;;;27.35;43.22
54248;BME280;40161;39.768;2.722;2022-08-11T08:18:25;101211.88;;;27.42;43.97
54248;BME280;40161;39.768;2.722;2022-08-11T08:20:53;101212.03;;;27.48;44.31
54248;BME280;40161;39.768;2.722;2022-08-11T08:23:21;101205.16;;;27.49;43.85
54248;BME280;40161;39.768;2.722;2022-08-11T08:26:02;101200.59;;;27.61;43.22
54248;BME280;40161;39.768;2.722;2022-08-11T08:28:28;101192.91;;;27.61;43.83
54248;BME280;40161;39.768;2.722;2022-08-11T08:30:55;101209.50;;;27.78;44.70
54248;BME280;40161;39.768;2.722;2022-08-11T08:33:25;101204.63;;;27.87;45.98
54248;BME280;40161;39.768;2.722;2022-08-11T08:35:57;101212.09;;;28.00;47.78
54248;BME280;40161;39.768;2.722;2022-08-11T08:38:49;101210.66;;;28.04;47.75
54248;BME280;40161;39.768;2.722;2022-08-11T08:41:21;101188.16;;;27.95;47.60
54248;BME280;40161;39.768;2.722;2022-08-11T08:43:49;101204.69;;;28.11;48.34
54248;BME280;40161;39.768;2.722;2022-08-11T08:46:21;101209.81;;;28.22;48.91
54248;BME280;40161;39.768;2.722;2022-08-11T08:48:53;101209.16;;;28.27;48.37
54248;BME280;40161;39.768;2.722;2022-08-11T08:51:22;101210.66;;;28.37;47.98
54248;BME280;40161;39.768;2.722;2022-08-11T08:54:06;101206.44;;;28.42;48.56
54248;BME280;40161;39.768;2.722;2022-08-11T08:56:32;101214.63;;;28.64;48.41
54248;BME280;40161;39.768;2.722;2022-08-11T08:59:01;101194.72;;;28.58;49.11
54248;BME280;40161;39.768;2.722;2022-08-11T09:01:39;101207.06;;;28.70;48.76
54248;BME280;40161;39.768;2.722;2022-08-11T09:04:07;101208.44;;;28.75;48.99
54248;BME280;40161;39.768;2.722;2022-08-11T09:06:35;101214.91;;;28.90;48.82
54248;BME280;40161;39.768;2.722;2022-08-11T09:09:04;101214.06;;;28.99;50.40
54248;BME280;40161;39.768;2.722;2022-08-11T09:11:32;101202.28;;;29.00;50.28
54248;BME280;40161;39.768;2.722;2022-08-11T09:14:39;101212.44;;;29.07;50.72
54248;BME280;40161;39.768;2.722;2022-08-11T09:17:24;101207.50;;;29.17;50.09
54248;BME280;40161;39.768;2.722;2022-08-11T09:19:59;101213.84;;;29.26;48.64
54248;BME280;40161;39.768;2.722;2022-08-11T09:22:26;101217.75;;;29.29;47.57
54248;BME280;40161;39.768;2.722;2022-08-11T09:25:11;101201.59;;;29.29;48.33
54248;BME280;40161;39.768;2.722;2022-08-11T09:27:57;101179.56;;;29.19;49.31
54248;BME280;40161;39.768;2.722;2022-08-11T09:30:24;101214.25;;;29.49;49.61
54248;BME280;40161;39.768;2.722;2022-08-11T09:32:56;101193.03;;;29.53;49.50
54248;BME280;40161;39.768;2.722;2022-08-11T09:35:29;101210.22;;;29.65;49.10
54248;BME280;40161;39.768;2.722;2022-08-11T09:37:56;101199.19;;;29.67;49.01
54248;BME280;40161;39.768;2.722;2022-08-11T09:40:43;101195.78;;;29.77;49.14
54248;BME280;40161;39.768;2.722;2022-08-11T09:43:09;101193.22;;;29.79;48.38
54248;BME280;40161;39.768;2.722;2022-08-11T09:45:55;101187.97;;;29.87;48.09
54248;BME280;40161;39.768;2.722;2022-08-11T09:48:26;101193.91;;;29.89;47.68
54248;BME280;40161;39.768;2.722;2022-08-11T09:50:55;101143.41;;;29.67;48.89
54248;BME280;40161;39.768;2.722;2022-08-11T09:53:23;101173.28;;;30.03;48.75
54248;BME280;40161;39.768;2.722;2022-08-11T09:55:49;101165.28;;;30.02;48.76
54248;BME280;40161;39.768;2.722;2022-08-11T09:58:15;101168.59;;;30.15;48.99
54248;BME280;40161;39.768;2.722;2022-08-11T10:00:48;101175.75;;;30.31;48.99
54248;BME280;40161;39.768;2.722;2022-08-11T10:03:24;101190.56;;;30.41;48.56
54248;BME280;40161;39.768;2.722;2022-08-11T10:05:55;101154.09;;;30.28;48.08
54248;BME280;40161;39.768;2.722;2022-08-11T10:08:40;101186.91;;;30.55;48.94
54248;BME280;40161;39.768;2.722;2022-08-11T10:11:20;101182.31;;;30.58;47.63
54248;BME280;40161;39.768;2.722;2022-08-11T10:13:48;101177.50;;;30.64;48.60
54248;BME280;40161;39.768;2.722;2022-08-11T10:16:38;101180.53;;;30.60;47.89
54248;BME280;40161;39.768;2.722;2022-08-11T10:19:07;101202.06;;;30.72;49.43
54248;BME280;40161;39.768;2.722;2022-08-11T10:21:40;101168.06;;;30.52;48.73
54248;BME280;40161;39.768;2.722;2022-08-11T10:24:07;101190.53;;;30.76;46.65
54248;BME280;40161;39.768;2.722;2022-08-11T10:26:53;101190.09;;;30.83;47.98
54248;BME280;40161;39.768;2.722;2022-08-11T10:32:07;101154.50;;;30.56;48.78
54248;BME280;40161;39.768;2.722;2022-08-11T10:34:53;101190.19;;;30.89;48.94
54248;BME280;40161;39.768;2.722;2022-08-11T10:37:20;101192.31;;;30.94;48.43
54248;BME280;40161;39.768;2.722;2022-08-11T10:39:48;101187.47;;;31.00;49.14
54248;BME280;40161;39.768;2.722;2022-08-11T10:42:14;101201.41;;;31.04;49.19
54248;BME280;40161;39.768;2.722;2022-08-11T10:45:00;101198.44;;;31.13;49.79
54248;BME280;40161;39.768;2.722;2022-08-11T10:47:28;101192.78;;;31.13;47.96
54248;BME280;40161;39.768;2.722;2022-08-11T10:50:18;101190.56;;;31.23;45.81
54248;BME280;40161;39.768;2.722;2022-08-11T10:53:02;101194.03;;;31.32;47.45
54248;BME280;40161;39.768;2.722;2022-08-11T10:55:47;101189.69;;;31.37;46.87
54248;BME280;40161;39.768;2.722;2022-08-11T10:58:32;101189.22;;;31.38;44.29
54248;BME280;40161;39.768;2.722;2022-08-11T11:03:48;101186.94;;;31.42;45.83
54248;BME280;40161;39.768;2.722;2022-08-11T11:09:18;101184.63;;;31.47;43.61
54248;BME280;40161;39.768;2.722;2022-08-11T11:11:49;101176.44;;;31.54;44.82
54248;BME280;40161;39.768;2.722;2022-08-11T11:14:35;101177.50;;;31.57;45.84
54248;BME280;40161;39.768;2.722;2022-08-11T11:17:28;101173.16;;;31.61;42.40
54248;BME280;40161;39.768;2.722;2022-08-11T11:20:16;101183.31;;;31.74;43.08
54248;BME280;40161;39.768;2.722;2022-08-11T11:22:43;101174.75;;;31.68;40.89
54248;BME280;40161;39.768;2.722;2022-08-11T11:25:29;101182.09;;;31.80;43.28
54248;BME280;40161;39.768;2.722;2022-08-11T11:30:44;101183.41;;;31.85;45.59
54248;BME280;40161;39.768;2.722;2022-08-11T11:34:19;101186.88;;;31.95;46.54
54248;BME280;40161;39.768;2.722;2022-08-11T11:36:35;101177.28;;;31.92;46.49
54248;BME280;40161;39.768;2.722;2022-08-11T11:39:06;101176.28;;;31.95;43.89
54248;BME280;40161;39.768;2.722;2022-08-11T11:41:33;101166.22;;;31.94;47.44
54248;BME280;40161;39.768;2.722;2022-08-11T11:43:59;101170.84;;;31.91;45.47
54248;BME280;40161;39.768;2.722;2022-08-11T11:46:28;101177.59;;;32.00;43.46
54248;BME280;40161;39.768;2.722;2022-08-11T11:48:55;101179.19;;;32.06;42.97
54248;BME280;40161;39.768;2.722;2022-08-11T11:51:22;101173.28;;;32.10;41.73
54248;BME280;40161;39.768;2.722;2022-08-11T11:53:49;101161.13;;;32.04;43.02
54248;BME280;40161;39.768;2.722;2022-08-11T11:56:16;101183.16;;;32.20;42.07
54248;BME280;40161;39.768;2.722;2022-08-11T11:58:42;101182.91;;;32.24;41.54
54248;BME280;40161;39.768;2.722;2022-08-11T12:01:26;101132.75;;;32.04;40.97
54248;BME280;40161;39.768;2.722;2022-08-11T12:03:53;101170.59;;;32.32;42.00
54248;BME280;40161;39.768;2.722;2022-08-11T12:06:23;101165.16;;;32.34;37.67
54248;BME280;40161;39.768;2.722;2022-08-11T12:08:52;101153.78;;;32.29;39.81
54248;BME280;40161;39.768;2.722;2022-08-11T12:11:21;101169.59;;;32.41;38.27
54248;BME280;40161;39.768;2.722;2022-08-11T12:14:07;101137.53;;;32.29;39.50
54248;BME280;40161;39.768;2.722;2022-08-11T12:16:39;101157.78;;;32.48;39.94
54248;BME280;40161;39.768;2.722;2022-08-11T12:19:18;101156.25;;;32.53;37.99
54248;BME280;40161;39.768;2.722;2022-08-11T12:21:53;101113.75;;;32.27;36.04
54248;BME280;40161;39.768;2.722;2022-08-11T12:24:38;101141.81;;;32.56;37.03
54248;BME280;40161;39.768;2.722;2022-08-11T12:27:29;101151.66;;;32.67;37.52
54248;BME280;40161;39.768;2.722;2022-08-11T12:30:00;101146.72;;;32.61;37.32
54248;BME280;40161;39.768;2.722;2022-08-11T12:32:36;101116.72;;;32.44;37.78
54248;BME280;40161;39.768;2.722;2022-08-11T12:35:07;101140.06;;;32.70;39.01
54248;BME280;40161;39.768;2.722;2022-08-11T12:37:51;101109.75;;;32.50;37.98
54248;BME280;40161;39.768;2.722;2022-08-11T12:40:26;101143.94;;;32.78;39.41
54248;BME280;40161;39.768;2.722;2022-08-11T12:43:16;101137.50;;;32.89;39.40
54248;BME280;40161;39.768;2.722;2022-08-11T12:46:05;101142.94;;;32.87;41.18
54248;BME280;40161;39.768;2.722;2022-08-11T12:48:34;101125.34;;;32.77;42.68
54248;BME280;40161;39.768;2.722;2022-08-11T12:51:22;101110.31;;;32.60;42.63
54248;BME280;40161;39.768;2.722;2022-08-11T12:54:13;101097.09;;;32.46;42.09
54248;BME280;40161;39.768;2.722;2022-08-11T12:56:46;101139.53;;;32.72;42.47
54248;BME280;40161;39.768;2.722;2022-08-11T12:59:32;101115.22;;;32.59;42.13
54248;BME280;40161;39.768;2.722;2022-08-11T13:02:23;101132.03;;;32.69;42.63
54248;BME280;40161;39.768;2.722;2022-08-11T13:05:13;101137.75;;;32.74;43.05
54248;BME280;40161;39.768;2.722;2022-08-11T13:07:41;101125.81;;;32.65;43.11
54248;BME280;40161;39.768;2.722;2022-08-11T13:10:13;101110.81;;;32.53;43.64
54248;BME280;40161;39.768;2.722;2022-08-11T13:13:07;101127.91;;;32.70;44.07
54248;BME280;40161;39.768;2.722;2022-08-11T13:15:33;101133.34;;;32.79;43.97
54248;BME280;40161;39.768;2.722;2022-08-11T13:18:10;101134.94;;;32.80;44.97
54248;BME280;40161;39.768;2.722;2022-08-11T13:20:40;101122.47;;;32.72;45.50
54248;BME280;40161;39.768;2.722;2022-08-11T13:23:06;101094.03;;;32.49;45.63
54248;BME280;40161;39.768;2.722;2022-08-11T13:25:32;101120.97;;;32.82;45.25
54248;BME280;40161;39.768;2.722;2022-08-11T13:28:02;101133.84;;;32.72;45.33
54248;BME280;40161;39.768;2.722;2022-08-11T13:30:30;101123.00;;;32.70;46.17
54248;BME280;40161;39.768;2.722;2022-08-11T13:33:21;101138.78;;;32.77;46.67
54248;BME280;40161;39.768;2.722;2022-08-11T13:35:52;101094.97;;;32.41;47.03
54248;BME280;40161;39.768;2.722;2022-08-11T13:38:21;101126.31;;;32.57;47.12
54248;BME280;40161;39.768;2.722;2022-08-11T13:40:50;101135.41;;;32.73;47.23
54248;BME280;40161;39.768;2.722;2022-08-11T13:43:19;101127.63;;;32.56;48.43
54248;BME280;40161;39.768;2.722;2022-08-11T13:45:46;101139.78;;;32.63;47.66
54248;BME280;40161;39.768;2.722;2022-08-11T13:48:14;101122.19;;;32.58;47.74
54248;BME280;40161;39.768;2.722;2022-08-11T13:50:45;101137.72;;;32.63;47.66
54248;BME280;40161;39.768;2.722;2022-08-11T13:53:33;101129.19;;;32.63;47.91
54248;BME280;40161;39.768;2.722;2022-08-11T13:56:03;101136.19;;;32.73;47.44
54248;BME280;40161;39.768;2.722;2022-08-11T13:58:29;101129.97;;;32.64;47.33
54248;BME280;40161;39.768;2.722;2022-08-11T14:00:55;101116.50;;;32.58;47.65
54248;BME280;40161;39.768;2.722;2022-08-11T14:03:25;101126.63;;;32.71;47.42
54248;BME280;40161;39.768;2.722;2022-08-11T14:05:53;101123.50;;;32.69;48.07
54248;BME280;40161;39.768;2.722;2022-08-11T14:08:26;101124.81;;;32.68;47.71
54248;BME280;40161;39.768;2.722;2022-08-11T14:10:58;101126.91;;;32.73;47.71
54248;BME280;40161;39.768;2.722;2022-08-11T14:13:44;101125.59;;;32.79;47.05
54248;BME280;40161;39.768;2.722;2022-08-11T14:16:22;101121.97;;;32.79;46.53
54248;BME280;40161;39.768;2.722;2022-08-11T14:18:53;101111.13;;;32.66;46.43
54248;BME280;40161;39.768;2.722;2022-08-11T14:21:20;101120.97;;;32.82;47.31
54248;BME280;40161;39.768;2.722;2022-08-11T14:24:11;101122.25;;;32.81;45.71
54248;BME280;40161;39.768;2.722;2022-08-11T14:26:42;101121.97;;;32.79;45.41
54248;BME280;40161;39.768;2.722;2022-08-11T14:29:15;101112.97;;;32.80;43.70
54248;BME280;40161;39.768;2.722;2022-08-11T14:31:47;101105.47;;;32.89;44.26
54248;BME280;40161;39.768;2.722;2022-08-11T14:34:16;101108.88;;;32.98;44.38
54248;BME280;40161;39.768;2.722;2022-08-11T14:36:44;101110.19;;;32.97;45.12
54248;BME280;40161;39.768;2.722;2022-08-11T14:39:16;101101.09;;;32.93;45.79
54248;BME280;40161;39.768;2.722;2022-08-11T14:41:45;101109.34;;;32.85;46.18
54248;BME280;40161;39.768;2.722;2022-08-11T14:44:32;101098.22;;;32.82;46.89
54248;BME280;40161;39.768;2.722;2022-08-11T14:47:35;101101.59;;;32.86;47.25
54248;BME280;40161;39.768;2.722;2022-08-11T14:50:03;101085.84;;;32.85;47.96
54248;BME280;40161;39.768;2.722;2022-08-11T14:52:33;101069.81;;;32.76;48.01
54248;BME280;40161;39.768;2.722;2022-08-11T14:55:00;101059.22;;;32.71;47.44
54248;BME280;40161;39.768;2.722;2022-08-11T14:57:44;101094.13;;;32.89;47.56
54248;BME280;40161;39.768;2.722;2022-08-11T15:00:13;101091.53;;;32.91;47.31
54248;BME280;40161;39.768;2.722;2022-08-11T15:02:41;101090.03;;;32.95;47.39
54248;BME280;40161;39.768;2.722;2022-08-11T15:05:26;101086.09;;;32.93;46.78
54248;BME280;40161;39.768;2.722;2022-08-11T15:07:53;101071.63;;;32.85;46.63
54248;BME280;40161;39.768;2.722;2022-08-11T15:10:20;101093.34;;;32.94;47.62
54248;BME280;40161;39.768;2.722;2022-08-11T15:12:47;101097.25;;;32.96;47.14
54248;BME280;40161;39.768;2.722;2022-08-11T15:15:13;101088.69;;;32.91;46.92
54248;BME280;40161;39.768;2.722;2022-08-11T15:17:59;101060.50;;;32.76;47.71
54248;BME280;40161;39.768;2.722;2022-08-11T15:20:28;101084.84;;;32.99;47.20
54248;BME280;40161;39.768;2.722;2022-08-11T15:23:12;101059.72;;;32.64;47.78
54248;BME280;40161;39.768;2.722;2022-08-11T15:26:00;101100.03;;;32.79;47.33
54248;BME280;40161;39.768;2.722;2022-08-11T15:28:36;101085.81;;;32.74;46.43
54248;BME280;40161;39.768;2.722;2022-08-11T15:31:27;101089.41;;;32.69;45.05
54248;BME280;40161;39.768;2.722;2022-08-11T15:34:03;101092.78;;;32.67;41.69
54248;BME280;40161;39.768;2.722;2022-08-11T15:36:48;101094.06;;;32.72;43.92
54248;BME280;40161;39.768;2.722;2022-08-11T15:39:38;101052.19;;;32.50;42.45
54248;BME280;40161;39.768;2.722;2022-08-11T15:42:26;101080.63;;;32.61;42.82
54248;BME280;40161;39.768;2.722;2022-08-11T15:45:12;101087.84;;;32.62;43.67
54248;BME280;40161;39.768;2.722;2022-08-11T15:48:06;101085.00;;;32.62;44.01
54248;BME280;40161;39.768;2.722;2022-08-11T15:50:35;101052.97;;;32.50;45.68
54248;BME280;40161;39.768;2.722;2022-08-11T15:53:10;101091.50;;;32.74;43.62
54248;BME280;40161;39.768;2.722;2022-08-11T15:55:38;101076.00;;;32.75;45.25
54248;BME280;40161;39.768;2.722;2022-08-11T15:58:07;101074.44;;;32.68;45.60
54248;BME280;40161;39.768;2.722;2022-08-11T16:00:52;101073.66;;;32.68;45.78
54248;BME280;40161;39.768;2.722;2022-08-11T16:04:06;101081.91;;;32.66;46.53
54248;BME280;40161;39.768;2.722;2022-08-11T16:06:41;101056.81;;;32.47;46.27
54248;BME280;40161;39.768;2.722;2022-08-11T16:09:07;101081.66;;;32.64;48.40
54248;BME280;40161;39.768;2.722;2022-08-11T16:11:34;101086.53;;;32.57;48.83
54248;BME280;40161;39.768;2.722;2022-08-11T16:14:04;101083.69;;;32.52;48.25
54248;BME280;40161;39.768;2.722;2022-08-11T16:16:50;101049.50;;;32.29;49.22
54248;BME280;40161;39.768;2.722;2022-08-11T16:19:18;101087.56;;;32.54;47.73
54248;BME280;40161;39.768;2.722;2022-08-11T16:21:46;101088.59;;;32.46;48.46
54248;BME280;40161;39.768;2.722;2022-08-11T16:24:16;101083.34;;;32.33;49.41
54248;BME280;40161;39.768;2.722;2022-08-11T16:26:43;101081.00;;;32.26;49.51
54248;BME280;40161;39.768;2.722;2022-08-11T16:29:10;101074.53;;;32.25;49.01
54248;BME280;40161;39.768;2.722;2022-08-11T16:31:37;101069.59;;;32.14;48.25
54248;BME280;40161;39.768;2.722;2022-08-11T16:34:06;101078.34;;;32.11;49.85
54248;BME280;40161;39.768;2.722;2022-08-11T16:36:55;101072.88;;;32.02;50.90
54248;BME280;40161;39.768;2.722;2022-08-11T16:39:40;101068.97;;;31.94;51.90
54248;BME280;40161;39.768;2.722;2022-08-11T16:42:12;101017.94;;;31.62;49.71
54248;BME280;40161;39.768;2.722;2022-08-11T16:48:19;101057.34;;;31.91;51.95
54248;BME280;40161;39.768;2.722;2022-08-11T16:50:45;101051.91;;;31.88;52.05
54248;BME280;40161;39.768;2.722;2022-08-11T16:59:35;101055.72;;;31.85;52.31
54248;BME280;40161;39.768;2.722;2022-08-11T17:02:06;101043.56;;;31.79;52.44
54248;BME280;40161;39.768;2.722;2022-08-11T17:11:00;101013.97;;;31.48;53.05
54248;BME280;40161;39.768;2.722;2022-08-11T17:17:10;101043.47;;;31.62;52.95
54248;BME280;40161;39.768;2.722;2022-08-11T17:19:42;101022.19;;;31.40;53.33
54248;BME280;40161;39.768;2.722;2022-08-11T17:22:08;101011.75;;;31.26;53.36
54248;BME280;40161;39.768;2.722;2022-08-11T17:24:54;101042.56;;;31.44;53.73
54248;BME280;40161;39.768;2.722;2022-08-11T17:27:21;101032.66;;;31.29;53.66
54248;BME280;40161;39.768;2.722;2022-08-11T17:29:57;101054.63;;;31.34;53.14
54248;BME280;40161;39.768;2.722;2022-08-11T17:32:32;101053.84;;;31.33;53.64
54248;BME280;40161;39.768;2.722;2022-08-11T17:35:27;101053.53;;;31.31;53.56
54248;BME280;40161;39.768;2.722;2022-08-11T17:38:06;101062.88;;;31.32;54.05
54248;BME280;40161;39.768;2.722;2022-08-11T17:40:37;101051.13;;;31.18;54.62
54248;BME280;40161;39.768;2.722;2022-08-11T17:43:05;101016.38;;;30.92;54.99
54248;BME280;40161;39.768;2.722;2022-08-11T17:45:50;101063.47;;;31.15;54.85
54248;BME280;40161;39.768;2.722;2022-08-11T17:48:41;101035.59;;;30.82;55.00
54248;BME280;40161;39.768;2.722;2022-08-11T17:54:28;101081.06;;;30.99;55.55
54248;BME280;40161;39.768;2.722;2022-08-11T17:57:16;101080.53;;;30.95;55.64
54248;BME280;40161;39.768;2.722;2022-08-11T18:00:05;101081.00;;;30.93;55.96
54248;BME280;40161;39.768;2.722;2022-08-11T18:02:43;101086.69;;;30.93;55.39
54248;BME280;40161;39.768;2.722;2022-08-11T18:05:30;101091.81;;;30.89;55.57
54248;BME280;40161;39.768;2.722;2022-08-11T18:07:59;101091.75;;;30.84;55.46
54248;BME280;40161;39.768;2.722;2022-08-11T18:10:48;101097.25;;;30.72;55.72